createdAt,value
2018-12-08T00:04:52.610Z,3.30
2018-12-08T00:20:52.683Z,2.40
2018-12-08T00:25:57.225Z,2.80
2018-12-08T00:31:12.152Z,2.37
2018-12-08T00:36:16.024Z,2.80
2018-12-08T00:41:20.250Z,2.60
2018-12-08T00:46:24.194Z,2.70
2018-12-08T00:51:28.643Z,2.63
2018-12-08T00:56:33.108Z,3.30
2018-12-08T01:01:37.969Z,2.80
2018-12-08T01:06:41.933Z,2.77
2018-12-08T01:11:46.730Z,2.90
2018-12-08T01:16:50.284Z,2.73
2018-12-08T01:21:53.836Z,2.93
2018-12-08T01:26:57.476Z,2.77
2018-12-08T01:32:01.159Z,2.47
2018-12-08T01:37:04.878Z,2.47
2018-12-08T01:42:09.140Z,2.87
2018-12-08T01:47:18.935Z,2.77
2018-12-08T01:52:22.886Z,2.40
2018-12-08T01:57:26.828Z,2.77
2018-12-08T02:02:30.930Z,3.20
2018-12-08T02:07:35.758Z,2.53
2018-12-08T02:12:39.879Z,2.60
2018-12-08T02:17:43.890Z,2.07
2018-12-08T02:22:47.726Z,2.90
2018-12-08T02:27:51.949Z,2.33
2018-12-08T02:32:55.541Z,2.23
2018-12-08T02:37:59.116Z,2.53
2018-12-08T02:43:03.802Z,2.40
2018-12-08T02:48:07.425Z,2.60
2018-12-08T02:53:11.056Z,2.77
2018-12-08T02:58:16.040Z,2.50
2018-12-08T03:03:19.952Z,2.60
2018-12-08T03:08:24.132Z,2.27
2018-12-08T03:13:28.535Z,2.00
2018-12-08T03:18:32.665Z,2.30
2018-12-08T03:23:36.545Z,1.87
2018-12-08T03:28:40.713Z,2.03
2018-12-08T03:33:44.545Z,1.70
2018-12-08T03:49:44.512Z,2.30
2018-12-08T03:54:48.585Z,2.13
2018-12-08T03:59:52.236Z,2.53
2018-12-08T04:04:56.209Z,2.50
2018-12-08T04:10:00.777Z,2.10
2018-12-08T04:15:05.897Z,2.47
2018-12-08T04:20:10.467Z,2.60
2018-12-08T04:25:15.197Z,2.27
2018-12-08T04:30:18.921Z,2.80
2018-12-08T04:35:23.251Z,1.93
2018-12-08T04:40:27.263Z,2.07
2018-12-08T04:45:30.971Z,1.93
2018-12-08T04:50:35.368Z,2.07
2018-12-08T04:55:38.952Z,2.47
2018-12-08T05:00:42.840Z,2.23
2018-12-08T05:05:46.361Z,2.00
2018-12-08T05:10:50.032Z,2.17
2018-12-08T05:15:54.264Z,2.23
2018-12-08T05:20:58.065Z,2.40
2018-12-08T05:26:01.603Z,2.20
2018-12-08T05:31:05.850Z,2.13
2018-12-08T05:36:10.574Z,2.10
2018-12-08T05:41:24.375Z,2.03
2018-12-08T05:46:28.718Z,2.00
2018-12-08T05:57:10.085Z,2.50
2018-12-08T06:02:14.353Z,1.67
2018-12-08T06:07:31.290Z,1.77
2018-12-08T06:18:09.339Z,2.13
2018-12-08T06:23:15.063Z,1.63
2018-12-08T06:28:28.131Z,2.00
2018-12-08T06:44:47.676Z,2.47
2018-12-08T07:17:11.071Z,1.60
2018-12-08T07:22:15.031Z,1.83
2018-12-08T07:27:19.905Z,2.13
2018-12-08T07:32:24.595Z,1.83
2018-12-08T07:37:28.440Z,1.93
2018-12-08T07:42:32.024Z,1.90
2018-12-08T07:47:35.643Z,2.13
2018-12-08T07:52:39.246Z,2.17
2018-12-08T07:57:42.894Z,2.30
2018-12-08T08:02:47.566Z,1.73
2018-12-08T08:07:51.147Z,2.57
2018-12-08T08:12:54.910Z,1.90
2018-12-08T08:17:58.493Z,1.90
2018-12-08T08:23:16.208Z,1.87
2018-12-08T08:28:19.898Z,2.17
2018-12-08T08:33:23.421Z,1.87
2018-12-08T08:38:28.402Z,1.40
2018-12-08T08:48:59.971Z,1.70
2018-12-08T08:54:04.525Z,1.40
2018-12-08T08:59:08.345Z,2.00
2018-12-08T09:04:13.236Z,2.20
2018-12-08T09:09:17.733Z,2.70
2018-12-08T09:14:21.646Z,2.70
2018-12-08T09:19:25.541Z,2.13
2018-12-08T09:24:29.896Z,2.73
2018-12-08T09:29:34.036Z,2.47
2018-12-08T09:34:38.702Z,2.40
2018-12-08T09:39:42.980Z,2.70
2018-12-08T09:44:47.304Z,2.90
2018-12-08T09:49:51.611Z,2.60
2018-12-08T09:54:55.843Z,2.80
2018-12-08T10:00:00.713Z,2.73
2018-12-08T10:05:04.543Z,2.90
2018-12-08T10:10:08.658Z,2.83
2018-12-08T10:15:12.280Z,3.03
2018-12-08T10:20:16.332Z,2.77
2018-12-08T10:25:19.952Z,3.07
2018-12-08T10:30:23.876Z,2.23
2018-12-08T10:35:27.679Z,3.00
2018-12-08T10:40:31.331Z,3.40
2018-12-08T10:45:35.600Z,3.80
2018-12-08T10:50:39.203Z,3.00
2018-12-08T10:55:42.899Z,3.53
2018-12-08T11:00:51.737Z,4.23
2018-12-08T11:05:55.367Z,3.90
2018-12-08T11:10:59.336Z,3.63
2018-12-08T11:16:02.934Z,5.23
2018-12-08T11:21:07.936Z,4.67
2018-12-08T11:26:11.863Z,4.53
2018-12-08T11:31:15.411Z,4.07
2018-12-08T11:36:19.840Z,4.20
2018-12-08T11:41:23.356Z,5.00
2018-12-08T11:46:27.893Z,5.27
2018-12-08T11:51:32.608Z,4.40
2018-12-08T11:56:36.273Z,4.43
2018-12-08T12:01:39.857Z,4.13
2018-12-08T12:06:44.216Z,4.50
2018-12-08T12:11:47.765Z,3.83
2018-12-08T12:16:51.284Z,3.50
2018-12-08T12:21:54.807Z,3.77
2018-12-08T12:26:58.398Z,3.90
2018-12-08T12:32:05.025Z,4.73
2018-12-08T12:37:09.167Z,5.43
2018-12-08T12:42:13.409Z,4.93
2018-12-08T13:03:40.643Z,4.13
2018-12-08T13:08:44.599Z,5.23
2018-12-08T13:13:49.317Z,4.50
2018-12-08T13:18:53.531Z,4.33
2018-12-08T13:23:57.040Z,4.67
2018-12-08T13:29:01.829Z,4.63
2018-12-08T13:34:16.686Z,5.00
2018-12-08T13:39:20.529Z,4.47
2018-12-08T13:44:35.776Z,4.53
2018-12-08T13:49:39.637Z,4.77
2018-12-08T13:54:52.395Z,4.13
2018-12-08T13:59:57.690Z,4.30
2018-12-08T14:05:01.539Z,4.30
2018-12-08T14:10:07.040Z,3.50
2018-12-08T14:15:10.863Z,3.50
2018-12-08T14:20:23.755Z,2.93
2018-12-08T14:30:55.444Z,2.90
2018-12-08T14:35:59.717Z,3.20
2018-12-08T14:41:03.275Z,3.63
2018-12-08T14:46:07.155Z,4.00
2018-12-08T14:51:11.190Z,4.20
2018-12-08T14:56:15.615Z,4.60
2018-12-08T15:01:19.237Z,3.80
2018-12-08T15:06:23.445Z,4.20
2018-12-08T15:16:55.062Z,4.07
2018-12-08T15:21:58.674Z,3.53
2018-12-08T15:27:03.207Z,3.57
2018-12-08T15:32:07.050Z,3.63
2018-12-08T15:37:11.344Z,3.60
2018-12-08T15:42:15.004Z,4.33
2018-12-08T15:47:18.643Z,3.87
2018-12-08T15:52:22.994Z,4.03
2018-12-08T15:57:27.987Z,3.50
2018-12-08T16:02:32.107Z,3.60
2018-12-08T16:07:36.387Z,3.63
2018-12-08T16:12:39.987Z,4.40
2018-12-08T16:17:57.982Z,4.63
2018-12-08T16:23:01.514Z,4.10
2018-12-08T16:28:09.714Z,4.10
2018-12-08T16:33:13.970Z,4.27
2018-12-08T16:38:17.927Z,3.87
2018-12-08T16:43:22.201Z,3.93
2018-12-08T16:48:26.402Z,3.93
2018-12-08T16:59:02.709Z,3.40
2018-12-08T17:04:06.436Z,4.23
2018-12-08T17:09:11.095Z,3.90
2018-12-08T17:14:14.725Z,4.30
2018-12-08T17:24:56.998Z,4.40
2018-12-08T17:30:01.012Z,4.80
2018-12-08T17:35:05.960Z,4.90
2018-12-08T17:40:10.153Z,4.60
2018-12-08T17:45:13.893Z,3.53
2018-12-08T17:50:17.730Z,4.90
2018-12-08T17:55:23.082Z,3.90
2018-12-08T18:00:26.679Z,5.13
2018-12-08T18:05:30.801Z,5.33
2018-12-08T18:10:34.437Z,4.97
2018-12-08T18:26:39.526Z,3.40
2018-12-08T18:31:43.167Z,3.20
2018-12-08T18:36:46.775Z,2.63
2018-12-08T18:41:50.349Z,2.60
2018-12-08T18:46:57.603Z,3.00
2018-12-08T18:52:01.384Z,2.33
2018-12-08T19:02:41.652Z,1.97
2018-12-08T19:07:46.031Z,2.53
2018-12-08T19:12:52.375Z,2.33
2018-12-08T19:17:55.971Z,2.10
2018-12-08T19:23:02.154Z,2.20
2018-12-08T19:28:20.018Z,1.93
2018-12-08T19:33:24.281Z,2.03
2018-12-08T19:43:55.824Z,1.63
2018-12-08T19:49:05.595Z,1.63
2018-12-08T20:32:24.452Z,1.70
2018-12-08T20:37:29.028Z,1.30
2018-12-08T20:42:33.064Z,1.67
2018-12-08T20:47:36.772Z,1.30
2018-12-08T20:52:40.669Z,1.13
2018-12-08T20:57:45.019Z,1.10
2018-12-08T21:02:49.279Z,0.80
2018-12-08T21:07:53.832Z,0.80
2018-12-08T21:12:58.919Z,0.87
2018-12-08T21:18:02.848Z,0.67
2018-12-08T21:23:08.316Z,0.83
2018-12-08T21:28:12.021Z,0.70
2018-12-08T21:33:16.325Z,0.70
2018-12-08T21:38:20.599Z,0.87
2018-12-08T21:43:25.065Z,0.80
2018-12-08T21:48:29.085Z,0.90
2018-12-08T21:53:35.454Z,0.83
2018-12-08T21:58:40.287Z,0.83
2018-12-08T22:03:44.335Z,1.47
2018-12-08T22:08:48.012Z,1.73
2018-12-08T22:13:51.740Z,2.67
2018-12-08T22:29:53.414Z,2.50
2018-12-08T22:34:57.529Z,2.40
2018-12-08T22:40:01.488Z,2.70
2018-12-08T22:45:06.757Z,3.67
2018-12-08T22:50:10.774Z,2.37
2018-12-08T22:55:14.673Z,3.03
2018-12-08T23:00:29.673Z,3.13
2018-12-08T23:05:33.237Z,3.50
2018-12-08T23:10:37.185Z,3.60
2018-12-08T23:15:40.788Z,3.83
2018-12-08T23:20:44.336Z,3.63
2018-12-08T23:25:47.949Z,3.53
2018-12-08T23:30:52.382Z,4.27
2018-12-08T23:35:56.542Z,3.47
2018-12-08T23:41:00.466Z,3.30
2018-12-08T23:46:04.176Z,3.70
2018-12-08T23:51:07.887Z,3.47
2018-12-08T23:56:12.229Z,2.63
